sensor_id;sensor_type;location;lat;lon;timestamp;temperature;humidity
13186;DHT22;6658;53.080;7.428;2024-01-11T00:01:36;-5.50;99.90
13186;DHT22;6658;53.080;7.428;2024-01-11T00:04:02;-5.50;99.90
13186;DHT22;6658;53.080;7.428;2024-01-11T00:06:35;-5.50;99.90
13186;DHT22;6658;53.080;7.428;2024-01-11T00:09:05;-5.50;99.90
13186;DHT22;6658;53.080;7.428;2024-01-11T00:11:31;-5.50;99.90
13186;DHT22;6658;53.080;7.428;2024-01-11T00:14:05;-5.50;99.90
13186;DHT22;6658;53.080;7.428;2024-01-11T00:16:33;-5.50;99.90
13186;DHT22;6658;53.080;7.428;2024-01-11T00:18:59;-5.60;99.90
13186;DHT22;6658;53.080;7.428;2024-01-11T00:21:34;-5.60;99.90
13186;DHT22;6658;53.080;7.428;2024-01-11T00:24:03;-5.60;99.90
13186;DHT22;6658;53.080;7.428;2024-01-11T00:26:38;-5.60;99.90
13186;DHT22;6658;53.080;7.428;2024-01-11T00:29:04;-5.60;99.90
13186;DHT22;6658;53.080;7.428;2024-01-11T00:31:32;-5.60;99.90
13186;DHT22;6658;53.080;7.428;2024-01-11T00:33:58;-5.50;99.90
13186;DHT22;6658;53.080;7.428;2024-01-11T00:36:24;-5.50;99.90
13186;DHT22;6658;53.080;7.428;2024-01-11T00:38:50;-5.50;99.90
13186;DHT22;6658;53.080;7.428;2024-01-11T00:41:16;-5.50;99.90
13186;DHT22;6658;53.080;7.428;2024-01-11T00:43:42;-5.50;99.90
13186;DHT22;6658;53.080;7.428;2024-01-11T00:46:08;-5.60;99.90
13186;DHT22;6658;53.080;7.428;2024-01-11T00:48:34;-5.60;99.90
13186;DHT22;6658;53.080;7.428;2024-01-11T00:50:59;-5.60;99.90
13186;DHT22;6658;53.080;7.428;2024-01-11T00:53:25;-5.60;99.90
13186;DHT22;6658;53.080;7.428;2024-01-11T00:55:58;-5.70;99.90
13186;DHT22;6658;53.080;7.428;2024-01-11T00:58:24;-5.80;99.90
13186;DHT22;6658;53.080;7.428;2024-01-11T01:00:54;-5.80;99.90
13186;DHT22;6658;53.080;7.428;2024-01-11T01:03:21;-5.90;99.90
13186;DHT22;6658;53.080;7.428;2024-01-11T01:05:47;-5.90;99.90
13186;DHT22;6658;53.080;7.428;2024-01-11T01:08:13;-6.00;99.90
13186;DHT22;6658;53.080;7.428;2024-01-11T01:10:41;-6.00;99.90
13186;DHT22;6658;53.080;7.428;2024-01-11T01:13:07;-6.10;99.90
13186;DHT22;6658;53.080;7.428;2024-01-11T01:15:33;-6.10;99.90
13186;DHT22;6658;53.080;7.428;2024-01-11T01:17:59;-6.10;99.90
13186;DHT22;6658;53.080;7.428;2024-01-11T01:20:25;-6.10;99.90
13186;DHT22;6658;53.080;7.428;2024-01-11T01:22:51;-6.20;99.90
13186;DHT22;6658;53.080;7.428;2024-01-11T01:25:16;-6.20;99.90
13186;DHT22;6658;53.080;7.428;2024-01-11T01:27:44;-6.20;99.90
13186;DHT22;6658;53.080;7.428;2024-01-11T01:30:10;-6.20;99.90
13186;DHT22;6658;53.080;7.428;2024-01-11T01:32:36;-6.20;99.90
13186;DHT22;6658;53.080;7.428;2024-01-11T01:35:02;-6.20;99.90
13186;DHT22;6658;53.080;7.428;2024-01-11T01:37:28;-6.20;99.90
13186;DHT22;6658;53.080;7.428;2024-01-11T01:39:54;-6.10;99.90
13186;DHT22;6658;53.080;7.428;2024-01-11T01:42:20;-6.20;99.90
13186;DHT22;6658;53.080;7.428;2024-01-11T01:44:48;-6.30;99.90
13186;DHT22;6658;53.080;7.428;2024-01-11T01:47:15;-6.30;99.90
13186;DHT22;6658;53.080;7.428;2024-01-11T01:49:43;-6.30;99.90
13186;DHT22;6658;53.080;7.428;2024-01-11T01:52:10;-6.40;99.90
13186;DHT22;6658;53.080;7.428;2024-01-11T01:54:36;-6.40;99.90
13186;DHT22;6658;53.080;7.428;2024-01-11T01:57:03;-6.50;99.90
13186;DHT22;6658;53.080;7.428;2024-01-11T01:59:30;-6.40;99.90
13186;DHT22;6658;53.080;7.428;2024-01-11T05:15:36;-4.10;99.90
13186;DHT22;6658;53.080;7.428;2024-01-11T05:18:02;-4.00;99.90
13186;DHT22;6658;53.080;7.428;2024-01-11T05:20:27;-4.00;99.90
13186;DHT22;6658;53.080;7.428;2024-01-11T05:22:53;-3.90;99.90
13186;DHT22;6658;53.080;7.428;2024-01-11T05:25:19;-3.90;99.90
13186;DHT22;6658;53.080;7.428;2024-01-11T05:27:45;-3.80;99.90
13186;DHT22;6658;53.080;7.428;2024-01-11T05:30:11;-3.80;99.90
13186;DHT22;6658;53.080;7.428;2024-01-11T05:32:37;-3.70;99.90
13186;DHT22;6658;53.080;7.428;2024-01-11T05:35:03;-3.70;99.90
13186;DHT22;6658;53.080;7.428;2024-01-11T05:37:29;-3.60;99.90
13186;DHT22;6658;53.080;7.428;2024-01-11T05:39:55;-3.60;99.90
13186;DHT22;6658;53.080;7.428;2024-01-11T05:42:23;-3.60;99.90
13186;DHT22;6658;53.080;7.428;2024-01-11T05:44:50;-3.50;99.90
13186;DHT22;6658;53.080;7.428;2024-01-11T05:47:16;-3.50;99.90
13186;DHT22;6658;53.080;7.428;2024-01-11T05:49:41;-3.40;99.90
13186;DHT22;6658;53.080;7.428;2024-01-11T05:52:07;-3.30;99.90
13186;DHT22;6658;53.080;7.428;2024-01-11T05:54:33;-3.40;99.90
13186;DHT22;6658;53.080;7.428;2024-01-11T05:56:59;-3.30;99.90
13186;DHT22;6658;53.080;7.428;2024-01-11T05:59:25;-3.30;99.90
13186;DHT22;6658;53.080;7.428;2024-01-11T06:01:51;-3.20;99.90
13186;DHT22;6658;53.080;7.428;2024-01-11T06:04:17;-3.20;99.90
13186;DHT22;6658;53.080;7.428;2024-01-11T06:06:43;-3.20;99.90
13186;DHT22;6658;53.080;7.428;2024-01-11T06:09:08;-3.10;99.90
13186;DHT22;6658;53.080;7.428;2024-01-11T06:11:35;-3.10;99.90
13186;DHT22;6658;53.080;7.428;2024-01-11T06:14:01;-3.10;99.90
13186;DHT22;6658;53.080;7.428;2024-01-11T06:16:28;-3.00;99.90
13186;DHT22;6658;53.080;7.428;2024-01-11T06:18:54;-3.00;99.90
13186;DHT22;6658;53.080;7.428;2024-01-11T06:21:19;-3.00;99.90
13186;DHT22;6658;53.080;7.428;2024-01-11T06:23:45;-2.90;99.90
13186;DHT22;6658;53.080;7.428;2024-01-11T06:26:11;-2.90;99.90
13186;DHT22;6658;53.080;7.428;2024-01-11T06:28:37;-2.80;99.90
13186;DHT22;6658;53.080;7.428;2024-01-11T06:31:02;-2.80;99.90
13186;DHT22;6658;53.080;7.428;2024-01-11T06:33:29;-2.80;99.90
13186;DHT22;6658;53.080;7.428;2024-01-11T06:35:54;-2.70;99.90
13186;DHT22;6658;53.080;7.428;2024-01-11T06:38:21;-2.70;99.90
13186;DHT22;6658;53.080;7.428;2024-01-11T06:40:48;-2.70;99.90
13186;DHT22;6658;53.080;7.428;2024-01-11T06:43:14;-2.60;99.90
13186;DHT22;6658;53.080;7.428;2024-01-11T06:45:42;-2.60;99.90
13186;DHT22;6658;53.080;7.428;2024-01-11T06:48:08;-2.50;99.90
13186;DHT22;6658;53.080;7.428;2024-01-11T06:50:34;-2.50;99.90
13186;DHT22;6658;53.080;7.428;2024-01-11T06:53:00;-2.50;99.90
13186;DHT22;6658;53.080;7.428;2024-01-11T06:55:26;-2.40;99.90
13186;DHT22;6658;53.080;7.428;2024-01-11T06:57:52;-2.40;99.90
13186;DHT22;6658;53.080;7.428;2024-01-11T07:00:18;-2.30;99.90
13186;DHT22;6658;53.080;7.428;2024-01-11T07:02:44;-2.30;99.90
13186;DHT22;6658;53.080;7.428;2024-01-11T07:05:10;-2.20;99.90
13186;DHT22;6658;53.080;7.428;2024-01-11T07:07:35;-2.20;99.90
13186;DHT22;6658;53.080;7.428;2024-01-11T07:10:01;-2.20;99.90
13186;DHT22;6658;53.080;7.428;2024-01-11T07:12:27;-2.10;99.90
13186;DHT22;6658;53.080;7.428;2024-01-11T07:14:52;-2.10;99.90
13186;DHT22;6658;53.080;7.428;2024-01-11T07:17:18;-2.10;99.90
13186;DHT22;6658;53.080;7.428;2024-01-11T07:19:44;-2.00;99.90
13186;DHT22;6658;53.080;7.428;2024-01-11T07:22:09;-2.00;99.90
13186;DHT22;6658;53.080;7.428;2024-01-11T07:24:36;-2.00;99.90
13186;DHT22;6658;53.080;7.428;2024-01-11T07:27:06;-1.90;99.90
13186;DHT22;6658;53.080;7.428;2024-01-11T07:29:35;-1.90;99.90
13186;DHT22;6658;53.080;7.428;2024-01-11T07:32:01;-1.90;99.90
13186;DHT22;6658;53.080;7.428;2024-01-11T07:34:27;-1.90;99.90
13186;DHT22;6658;53.080;7.428;2024-01-11T07:36:53;-1.80;99.90
13186;DHT22;6658;53.080;7.428;2024-01-11T07:39:19;-1.80;99.90
13186;DHT22;6658;53.080;7.428;2024-01-11T07:41:45;-1.80;99.90
13186;DHT22;6658;53.080;7.428;2024-01-11T07:44:11;-1.70;99.90
13186;DHT22;6658;53.080;7.428;2024-01-11T07:46:36;-1.70;99.90
13186;DHT22;6658;53.080;7.428;2024-01-11T07:49:05;-1.60;99.90
13186;DHT22;6658;53.080;7.428;2024-01-11T07:51:32;-1.60;99.90
13186;DHT22;6658;53.080;7.428;2024-01-11T07:53:57;-1.60;99.90
13186;DHT22;6658;53.080;7.428;2024-01-11T07:56:24;-1.50;99.90
13186;DHT22;6658;53.080;7.428;2024-01-11T07:58:50;-1.50;99.90
13186;DHT22;6658;53.080;7.428;2024-01-11T08:01:16;-1.50;99.90
13186;DHT22;6658;53.080;7.428;2024-01-11T08:03:42;-1.40;99.90
13186;DHT22;6658;53.080;7.428;2024-01-11T08:06:10;-1.40;99.90
13186;DHT22;6658;53.080;7.428;2024-01-11T08:08:37;-1.40;99.90
13186;DHT22;6658;53.080;7.428;2024-01-11T08:11:07;-1.30;99.90
13186;DHT22;6658;53.080;7.428;2024-01-11T08:13:33;-1.30;99.90
13186;DHT22;6658;53.080;7.428;2024-01-11T08:16:03;-1.30;99.90
13186;DHT22;6658;53.080;7.428;2024-01-11T08:18:30;-1.30;99.90
13186;DHT22;6658;53.080;7.428;2024-01-11T08:20:56;-1.20;99.90
13186;DHT22;6658;53.080;7.428;2024-01-11T08:23:22;-1.20;99.90
13186;DHT22;6658;53.080;7.428;2024-01-11T08:25:49;-1.10;99.90
13186;DHT22;6658;53.080;7.428;2024-01-11T08:28:14;-1.10;99.90
13186;DHT22;6658;53.080;7.428;2024-01-11T08:30:40;-1.00;99.90
13186;DHT22;6658;53.080;7.428;2024-01-11T08:33:08;-1.00;99.90
13186;DHT22;6658;53.080;7.428;2024-01-11T08:35:33;-0.90;99.90
13186;DHT22;6658;53.080;7.428;2024-01-11T08:37:59;-0.90;99.90
13186;DHT22;6658;53.080;7.428;2024-01-11T08:40:24;-0.80;99.90
13186;DHT22;6658;53.080;7.428;2024-01-11T08:42:51;-0.80;99.90
13186;DHT22;6658;53.080;7.428;2024-01-11T08:45:16;-0.70;99.90
13186;DHT22;6658;53.080;7.428;2024-01-11T08:47:46;-0.70;99.90
13186;DHT22;6658;53.080;7.428;2024-01-11T08:50:13;-0.60;99.90
13186;DHT22;6658;53.080;7.428;2024-01-11T08:52:39;-0.60;99.90
13186;DHT22;6658;53.080;7.428;2024-01-11T08:55:05;-0.50;99.90
13186;DHT22;6658;53.080;7.428;2024-01-11T08:57:31;-0.50;99.90
13186;DHT22;6658;53.080;7.428;2024-01-11T08:59:57;-0.50;99.90
13186;DHT22;6658;53.080;7.428;2024-01-11T09:02:22;-0.40;99.90
13186;DHT22;6658;53.080;7.428;2024-01-11T09:04:48;-0.30;99.90
13186;DHT22;6658;53.080;7.428;2024-01-11T09:07:14;-0.30;99.90
13186;DHT22;6658;53.080;7.428;2024-01-11T09:09:41;-0.30;99.90
13186;DHT22;6658;53.080;7.428;2024-01-11T09:12:06;-0.20;99.90
13186;DHT22;6658;53.080;7.428;2024-01-11T09:14:32;-0.20;99.90
13186;DHT22;6658;53.080;7.428;2024-01-11T09:16:58;-0.10;99.90
13186;DHT22;6658;53.080;7.428;2024-01-11T09:19:23;-0.10;99.90
13186;DHT22;6658;53.080;7.428;2024-01-11T09:21:49;-0.10;99.90
13186;DHT22;6658;53.080;7.428;2024-01-11T09:24:15;0.00;99.90
13186;DHT22;6658;53.080;7.428;2024-01-11T09:26:41;0.00;99.90
13186;DHT22;6658;53.080;7.428;2024-01-11T09:29:06;0.10;99.90
13186;DHT22;6658;53.080;7.428;2024-01-11T09:31:32;0.10;99.90
13186;DHT22;6658;53.080;7.428;2024-01-11T09:33:58;0.10;99.90
13186;DHT22;6658;53.080;7.428;2024-01-11T09:36:23;0.20;99.90
13186;DHT22;6658;53.080;7.428;2024-01-11T09:38:49;0.30;99.90
13186;DHT22;6658;53.080;7.428;2024-01-11T09:41:15;0.40;99.90
13186;DHT22;6658;53.080;7.428;2024-01-11T09:43:41;0.40;99.90
13186;DHT22;6658;53.080;7.428;2024-01-11T09:46:09;0.40;99.90
13186;DHT22;6658;53.080;7.428;2024-01-11T09:48:37;0.50;99.90
13186;DHT22;6658;53.080;7.428;2024-01-11T09:51:04;0.50;99.90
13186;DHT22;6658;53.080;7.428;2024-01-11T09:53:32;0.60;99.90
13186;DHT22;6658;53.080;7.428;2024-01-11T09:55:58;0.60;99.90
13186;DHT22;6658;53.080;7.428;2024-01-11T09:58:25;0.60;99.90
13186;DHT22;6658;53.080;7.428;2024-01-11T10:00:54;0.70;99.90
13186;DHT22;6658;53.080;7.428;2024-01-11T10:03:22;0.70;99.90
13186;DHT22;6658;53.080;7.428;2024-01-11T10:05:49;0.80;99.90
13186;DHT22;6658;53.080;7.428;2024-01-11T10:08:21;0.80;99.90
13186;DHT22;6658;53.080;7.428;2024-01-11T10:10:47;0.90;99.90
13186;DHT22;6658;53.080;7.428;2024-01-11T10:13:14;0.90;99.90
13186;DHT22;6658;53.080;7.428;2024-01-11T10:15:39;0.90;99.90
13186;DHT22;6658;53.080;7.428;2024-01-11T10:18:05;1.00;99.90
13186;DHT22;6658;53.080;7.428;2024-01-11T10:20:31;1.00;99.90
13186;DHT22;6658;53.080;7.428;2024-01-11T10:22:57;1.10;99.90
13186;DHT22;6658;53.080;7.428;2024-01-11T10:25:24;1.10;99.90
13186;DHT22;6658;53.080;7.428;2024-01-11T10:27:50;1.10;99.90
13186;DHT22;6658;53.080;7.428;2024-01-11T10:30:16;1.10;99.90
13186;DHT22;6658;53.080;7.428;2024-01-11T10:32:46;1.10;99.90
13186;DHT22;6658;53.080;7.428;2024-01-11T10:35:12;1.10;99.90
13186;DHT22;6658;53.080;7.428;2024-01-11T10:37:38;1.10;99.90
13186;DHT22;6658;53.080;7.428;2024-01-11T10:40:08;1.10;99.90
13186;DHT22;6658;53.080;7.428;2024-01-11T10:42:45;1.10;99.90
13186;DHT22;6658;53.080;7.428;2024-01-11T10:45:20;1.20;99.90
13186;DHT22;6658;53.080;7.428;2024-01-11T10:48:01;1.20;99.90
13186;DHT22;6658;53.080;7.428;2024-01-11T10:50:33;1.20;99.90
13186;DHT22;6658;53.080;7.428;2024-01-11T10:55:44;1.30;99.90
13186;DHT22;6658;53.080;7.428;2024-01-11T10:58:11;1.30;99.90
13186;DHT22;6658;53.080;7.428;2024-01-11T11:00:37;1.30;99.90
13186;DHT22;6658;53.080;7.428;2024-01-11T11:03:05;1.40;99.90
13186;DHT22;6658;53.080;7.428;2024-01-11T11:05:32;1.40;99.90
13186;DHT22;6658;53.080;7.428;2024-01-11T11:08:01;1.50;99.90
13186;DHT22;6658;53.080;7.428;2024-01-11T11:10:28;1.60;99.90
13186;DHT22;6658;53.080;7.428;2024-01-11T11:12:54;1.60;99.90
13186;DHT22;6658;53.080;7.428;2024-01-11T11:15:24;1.60;99.90
13186;DHT22;6658;53.080;7.428;2024-01-11T11:17:50;1.70;99.90
13186;DHT22;6658;53.080;7.428;2024-01-11T11:20:15;1.70;99.90
13186;DHT22;6658;53.080;7.428;2024-01-11T11:22:42;1.80;99.90
13186;DHT22;6658;53.080;7.428;2024-01-11T11:25:24;1.80;99.90
13186;DHT22;6658;53.080;7.428;2024-01-11T11:27:50;1.80;99.90
13186;DHT22;6658;53.080;7.428;2024-01-11T11:30:19;1.80;99.90
13186;DHT22;6658;53.080;7.428;2024-01-11T11:32:46;1.90;99.90
13186;DHT22;6658;53.080;7.428;2024-01-11T11:35:12;2.00;99.90
13186;DHT22;6658;53.080;7.428;2024-01-11T11:37:38;2.10;99.90
13186;DHT22;6658;53.080;7.428;2024-01-11T11:40:06;2.10;99.90
13186;DHT22;6658;53.080;7.428;2024-01-11T11:42:34;2.20;99.90
13186;DHT22;6658;53.080;7.428;2024-01-11T11:45:00;2.20;99.90
13186;DHT22;6658;53.080;7.428;2024-01-11T11:47:34;2.30;99.90
13186;DHT22;6658;53.080;7.428;2024-01-11T11:52:33;2.20;99.90
13186;DHT22;6658;53.080;7.428;2024-01-11T11:55:03;2.10;99.90
13186;DHT22;6658;53.080;7.428;2024-01-11T11:57:29;2.10;99.90
13186;DHT22;6658;53.080;7.428;2024-01-11T11:59:58;2.10;99.90
13186;DHT22;6658;53.080;7.428;2024-01-11T12:02:25;2.00;99.90
13186;DHT22;6658;53.080;7.428;2024-01-11T12:04:52;2.10;99.90
13186;DHT22;6658;53.080;7.428;2024-01-11T12:07:20;2.10;99.90
13186;DHT22;6658;53.080;7.428;2024-01-11T12:09:46;2.10;99.90
13186;DHT22;6658;53.080;7.428;2024-01-11T12:12:13;2.20;99.90
13186;DHT22;6658;53.080;7.428;2024-01-11T12:14:39;2.10;99.90
13186;DHT22;6658;53.080;7.428;2024-01-11T12:17:06;2.20;99.90
13186;DHT22;6658;53.080;7.428;2024-01-11T12:19:32;2.10;99.90
13186;DHT22;6658;53.080;7.428;2024-01-11T12:21:59;2.10;99.90
13186;DHT22;6658;53.080;7.428;2024-01-11T12:24:24;2.10;99.90
13186;DHT22;6658;53.080;7.428;2024-01-11T12:26:50;2.20;99.90
13186;DHT22;6658;53.080;7.428;2024-01-11T12:29:19;2.10;99.90
13186;DHT22;6658;53.080;7.428;2024-01-11T12:31:45;2.10;99.90
13186;DHT22;6658;53.080;7.428;2024-01-11T12:34:14;2.10;99.90
13186;DHT22;6658;53.080;7.428;2024-01-11T12:36:40;2.20;99.90
13186;DHT22;6658;53.080;7.428;2024-01-11T12:39:06;2.20;99.90
13186;DHT22;6658;53.080;7.428;2024-01-11T12:41:34;2.20;99.90
13186;DHT22;6658;53.080;7.428;2024-01-11T12:44:01;2.20;99.90
13186;DHT22;6658;53.080;7.428;2024-01-11T12:46:27;2.20;99.90
13186;DHT22;6658;53.080;7.428;2024-01-11T12:48:53;2.20;99.90
13186;DHT22;6658;53.080;7.428;2024-01-11T12:51:20;2.30;99.90
13186;DHT22;6658;53.080;7.428;2024-01-11T12:53:50;2.30;99.90
13186;DHT22;6658;53.080;7.428;2024-01-11T12:56:17;2.40;99.90
13186;DHT22;6658;53.080;7.428;2024-01-11T12:58:43;2.40;99.90
13186;DHT22;6658;53.080;7.428;2024-01-11T13:01:11;2.40;99.90
13186;DHT22;6658;53.080;7.428;2024-01-11T13:03:40;2.40;99.90
13186;DHT22;6658;53.080;7.428;2024-01-11T13:06:09;2.40;99.90
13186;DHT22;6658;53.080;7.428;2024-01-11T13:08:37;2.40;99.90
13186;DHT22;6658;53.080;7.428;2024-01-11T13:11:05;2.30;99.90
13186;DHT22;6658;53.080;7.428;2024-01-11T13:13:35;2.30;99.90
13186;DHT22;6658;53.080;7.428;2024-01-11T13:16:04;2.30;99.90
13186;DHT22;6658;53.080;7.428;2024-01-11T13:18:36;2.30;99.90
13186;DHT22;6658;53.080;7.428;2024-01-11T13:21:02;2.30;99.90
13186;DHT22;6658;53.080;7.428;2024-01-11T13:23:28;2.30;99.90
13186;DHT22;6658;53.080;7.428;2024-01-11T13:25:54;2.20;99.90
13186;DHT22;6658;53.080;7.428;2024-01-11T13:28:19;2.30;99.90
13186;DHT22;6658;53.080;7.428;2024-01-11T13:30:46;2.30;99.90
13186;DHT22;6658;53.080;7.428;2024-01-11T13:33:12;2.30;99.90
13186;DHT22;6658;53.080;7.428;2024-01-11T13:35:38;2.40;99.90
13186;DHT22;6658;53.080;7.428;2024-01-11T13:38:04;2.30;99.90
13186;DHT22;6658;53.080;7.428;2024-01-11T13:40:31;2.40;99.90
13186;DHT22;6658;53.080;7.428;2024-01-11T13:42:57;2.40;99.90
13186;DHT22;6658;53.080;7.428;2024-01-11T13:45:24;2.40;99.90
13186;DHT22;6658;53.080;7.428;2024-01-11T13:47:51;2.40;99.90
13186;DHT22;6658;53.080;7.428;2024-01-11T13:50:19;2.40;99.90
13186;DHT22;6658;53.080;7.428;2024-01-11T13:52:45;2.40;99.90
13186;DHT22;6658;53.080;7.428;2024-01-11T13:55:11;2.40;99.90
13186;DHT22;6658;53.080;7.428;2024-01-11T13:57:38;2.40;99.90
13186;DHT22;6658;53.080;7.428;2024-01-11T14:00:06;2.40;99.90
13186;DHT22;6658;53.080;7.428;2024-01-11T14:02:32;2.40;99.90
13186;DHT22;6658;53.080;7.428;2024-01-11T14:04:58;2.40;99.90
13186;DHT22;6658;53.080;7.428;2024-01-11T14:07:24;2.40;99.90
13186;DHT22;6658;53.080;7.428;2024-01-11T14:09:51;2.40;99.90
13186;DHT22;6658;53.080;7.428;2024-01-11T14:12:17;2.40;99.90
13186;DHT22;6658;53.080;7.428;2024-01-11T14:14:43;2.40;99.90
13186;DHT22;6658;53.080;7.428;2024-01-11T14:17:09;2.40;99.90
13186;DHT22;6658;53.080;7.428;2024-01-11T14:19:35;2.50;99.90
13186;DHT22;6658;53.080;7.428;2024-01-11T14:22:01;2.40;99.90
13186;DHT22;6658;53.080;7.428;2024-01-11T14:24:27;2.30;99.90
13186;DHT22;6658;53.080;7.428;2024-01-11T14:26:52;2.40;99.90
13186;DHT22;6658;53.080;7.428;2024-01-11T14:29:18;2.40;99.90
13186;DHT22;6658;53.080;7.428;2024-01-11T14:31:44;2.40;99.90
13186;DHT22;6658;53.080;7.428;2024-01-11T14:34:10;2.40;99.90
13186;DHT22;6658;53.080;7.428;2024-01-11T14:36:36;2.30;99.90
13186;DHT22;6658;53.080;7.428;2024-01-11T14:39:03;2.40;99.90
13186;DHT22;6658;53.080;7.428;2024-01-11T14:41:30;2.30;99.90
13186;DHT22;6658;53.080;7.428;2024-01-11T14:43:57;2.30;99.90
13186;DHT22;6658;53.080;7.428;2024-01-11T14:46:22;2.30;99.90
13186;DHT22;6658;53.080;7.428;2024-01-11T14:48:48;2.30;99.90
13186;DHT22;6658;53.080;7.428;2024-01-11T14:51:14;2.20;99.90
13186;DHT22;6658;53.080;7.428;2024-01-11T14:53:40;2.20;99.90
13186;DHT22;6658;53.080;7.428;2024-01-11T14:56:06;2.20;99.90
13186;DHT22;6658;53.080;7.428;2024-01-11T14:58:31;2.20;99.90
13186;DHT22;6658;53.080;7.428;2024-01-11T15:00:57;2.20;99.90
13186;DHT22;6658;53.080;7.428;2024-01-11T15:03:23;2.20;99.90
13186;DHT22;6658;53.080;7.428;2024-01-11T15:05:53;2.20;99.90
13186;DHT22;6658;53.080;7.428;2024-01-11T15:08:20;2.20;99.90
13186;DHT22;6658;53.080;7.428;2024-01-11T15:10:46;2.10;99.90
13186;DHT22;6658;53.080;7.428;2024-01-11T15:13:12;2.10;99.90
13186;DHT22;6658;53.080;7.428;2024-01-11T15:15:38;2.10;99.90
13186;DHT22;6658;53.080;7.428;2024-01-11T15:18:04;2.10;99.90
13186;DHT22;6658;53.080;7.428;2024-01-11T15:20:30;2.10;99.90
13186;DHT22;6658;53.080;7.428;2024-01-11T15:22:56;2.10;99.90
13186;DHT22;6658;53.080;7.428;2024-01-11T15:25:22;2.10;99.90
13186;DHT22;6658;53.080;7.428;2024-01-11T15:27:49;2.10;99.90
13186;DHT22;6658;53.080;7.428;2024-01-11T15:30:15;2.10;99.90
13186;DHT22;6658;53.080;7.428;2024-01-11T15:32:42;2.10;99.90
13186;DHT22;6658;53.080;7.428;2024-01-11T15:35:08;2.10;99.90
13186;DHT22;6658;53.080;7.428;2024-01-11T15:37:34;2.10;99.90
13186;DHT22;6658;53.080;7.428;2024-01-11T15:40:01;2.10;99.90
13186;DHT22;6658;53.080;7.428;2024-01-11T15:42:27;2.10;99.90
13186;DHT22;6658;53.080;7.428;2024-01-11T15:44:53;2.10;99.90
13186;DHT22;6658;53.080;7.428;2024-01-11T15:47:19;2.10;99.90
13186;DHT22;6658;53.080;7.428;2024-01-11T15:49:45;2.00;99.90
13186;DHT22;6658;53.080;7.428;2024-01-11T15:52:10;2.00;99.90
13186;DHT22;6658;53.080;7.428;2024-01-11T15:54:36;2.00;99.90
13186;DHT22;6658;53.080;7.428;2024-01-11T15:57:02;2.00;99.90
13186;DHT22;6658;53.080;7.428;2024-01-11T15:59:32;2.00;99.90
13186;DHT22;6658;53.080;7.428;2024-01-11T16:01:58;2.00;99.90
13186;DHT22;6658;53.080;7.428;2024-01-11T16:04:23;2.00;99.90
13186;DHT22;6658;53.080;7.428;2024-01-11T16:06:51;2.00;99.90
13186;DHT22;6658;53.080;7.428;2024-01-11T16:09:17;2.00;99.90
13186;DHT22;6658;53.080;7.428;2024-01-11T16:11:44;2.00;99.90
13186;DHT22;6658;53.080;7.428;2024-01-11T16:14:10;2.00;99.90
13186;DHT22;6658;53.080;7.428;2024-01-11T16:16:36;2.00;99.90
13186;DHT22;6658;53.080;7.428;2024-01-11T16:19:02;2.00;99.90
13186;DHT22;6658;53.080;7.428;2024-01-11T16:21:27;2.00;99.90
13186;DHT22;6658;53.080;7.428;2024-01-11T16:24:00;2.00;99.90
13186;DHT22;6658;53.080;7.428;2024-01-11T16:26:25;2.00;99.90
13186;DHT22;6658;53.080;7.428;2024-01-11T16:28:51;2.00;99.90
13186;DHT22;6658;53.080;7.428;2024-01-11T16:31:17;2.00;99.90
13186;DHT22;6658;53.080;7.428;2024-01-11T16:33:44;2.00;99.90
13186;DHT22;6658;53.080;7.428;2024-01-11T16:36:10;2.00;99.90
13186;DHT22;6658;53.080;7.428;2024-01-11T16:38:37;2.00;99.90
13186;DHT22;6658;53.080;7.428;2024-01-11T16:41:03;1.90;99.90
13186;DHT22;6658;53.080;7.428;2024-01-11T16:43:29;1.90;99.90
13186;DHT22;6658;53.080;7.428;2024-01-11T16:45:57;1.90;99.90
13186;DHT22;6658;53.080;7.428;2024-01-11T16:48:23;1.90;99.90
13186;DHT22;6658;53.080;7.428;2024-01-11T16:50:49;1.90;99.90
13186;DHT22;6658;53.080;7.428;2024-01-11T16:53:15;1.90;99.90
13186;DHT22;6658;53.080;7.428;2024-01-11T16:55:44;2.00;99.90
13186;DHT22;6658;53.080;7.428;2024-01-11T16:58:10;2.00;99.90
13186;DHT22;6658;53.080;7.428;2024-01-11T17:00:40;2.00;99.90
13186;DHT22;6658;53.080;7.428;2024-01-11T17:03:06;2.00;99.90
13186;DHT22;6658;53.080;7.428;2024-01-11T17:05:33;2.00;99.90
13186;DHT22;6658;53.080;7.428;2024-01-11T17:07:59;2.00;99.90
13186;DHT22;6658;53.080;7.428;2024-01-11T17:10:25;2.00;99.90
13186;DHT22;6658;53.080;7.428;2024-01-11T17:12:51;2.00;99.90
13186;DHT22;6658;53.080;7.428;2024-01-11T17:15:16;2.00;99.90
13186;DHT22;6658;53.080;7.428;2024-01-11T17:17:42;2.00;99.90
13186;DHT22;6658;53.080;7.428;2024-01-11T17:20:10;2.00;99.90
13186;DHT22;6658;53.080;7.428;2024-01-11T17:22:36;2.00;99.90
13186;DHT22;6658;53.080;7.428;2024-01-11T17:25:02;1.90;99.90
13186;DHT22;6658;53.080;7.428;2024-01-11T17:27:28;1.90;99.90
13186;DHT22;6658;53.080;7.428;2024-01-11T17:29:54;1.90;99.90
13186;DHT22;6658;53.080;7.428;2024-01-11T17:32:20;1.90;99.90
13186;DHT22;6658;53.080;7.428;2024-01-11T17:34:46;1.90;99.90
13186;DHT22;6658;53.080;7.428;2024-01-11T17:37:17;1.90;99.90
13186;DHT22;6658;53.080;7.428;2024-01-11T17:39:50;1.90;99.90
13186;DHT22;6658;53.080;7.428;2024-01-11T17:42:16;1.90;99.90
13186;DHT22;6658;53.080;7.428;2024-01-11T17:44:42;1.80;99.90
13186;DHT22;6658;53.080;7.428;2024-01-11T17:47:08;1.80;99.90
13186;DHT22;6658;53.080;7.428;2024-01-11T17:49:34;1.80;99.90
13186;DHT22;6658;53.080;7.428;2024-01-11T17:52:03;1.80;99.90
13186;DHT22;6658;53.080;7.428;2024-01-11T17:54:28;1.80;99.90
13186;DHT22;6658;53.080;7.428;2024-01-11T17:56:54;1.80;99.90
13186;DHT22;6658;53.080;7.428;2024-01-11T17:59:20;1.80;99.90
13186;DHT22;6658;53.080;7.428;2024-01-11T18:01:46;1.80;99.90
13186;DHT22;6658;53.080;7.428;2024-01-11T18:04:11;1.80;99.90
13186;DHT22;6658;53.080;7.428;2024-01-11T18:06:38;1.80;99.90
13186;DHT22;6658;53.080;7.428;2024-01-11T18:09:03;1.80;99.90
13186;DHT22;6658;53.080;7.428;2024-01-11T18:11:30;1.80;99.90
13186;DHT22;6658;53.080;7.428;2024-01-11T18:13:57;1.70;99.90
13186;DHT22;6658;53.080;7.428;2024-01-11T18:16:23;1.70;99.90
13186;DHT22;6658;53.080;7.428;2024-01-11T18:18:51;1.80;99.90
13186;DHT22;6658;53.080;7.428;2024-01-11T18:21:17;1.70;99.90
13186;DHT22;6658;53.080;7.428;2024-01-11T18:23:42;1.70;99.90
13186;DHT22;6658;53.080;7.428;2024-01-11T18:26:09;1.80;99.90
13186;DHT22;6658;53.080;7.428;2024-01-11T18:28:35;1.80;99.90
13186;DHT22;6658;53.080;7.428;2024-01-11T18:31:01;1.80;99.90
13186;DHT22;6658;53.080;7.428;2024-01-11T18:33:27;1.80;99.90
13186;DHT22;6658;53.080;7.428;2024-01-11T18:35:52;1.80;99.90
13186;DHT22;6658;53.080;7.428;2024-01-11T18:38:18;1.80;99.90
13186;DHT22;6658;53.080;7.428;2024-01-11T18:40:47;1.80;99.90
13186;DHT22;6658;53.080;7.428;2024-01-11T18:43:12;1.70;99.90
13186;DHT22;6658;53.080;7.428;2024-01-11T18:45:38;1.70;99.90
13186;DHT22;6658;53.080;7.428;2024-01-11T18:48:04;1.70;99.90
13186;DHT22;6658;53.080;7.428;2024-01-11T18:50:36;1.70;99.90
13186;DHT22;6658;53.080;7.428;2024-01-11T18:53:01;1.60;99.90
13186;DHT22;6658;53.080;7.428;2024-01-11T18:55:29;1.60;99.90
13186;DHT22;6658;53.080;7.428;2024-01-11T18:57:56;1.60;99.90
13186;DHT22;6658;53.080;7.428;2024-01-11T19:00:22;1.60;99.90
13186;DHT22;6658;53.080;7.428;2024-01-11T19:02:47;1.60;99.90
13186;DHT22;6658;53.080;7.428;2024-01-11T19:05:16;1.50;99.90
13186;DHT22;6658;53.080;7.428;2024-01-11T19:07:42;1.50;99.90
13186;DHT22;6658;53.080;7.428;2024-01-11T19:10:09;1.50;99.90